aviador You're here:

GMMX Decoded Metar

MARRAKECH in MOROCCO
Report Time2017-12-11 03:30:00
UTC Time2017-12-11 04:04:47
Flight Rules vfr VFR
WindVRB at 01 kt
Visibility9999 m
Phenomena:N/A
Clouds:N/A
Expected CloudBase > 2,000 ft AGL from Temp-Dew spread
CeilingNone
Temp11°C (ISA -1)
Dew Point06°C (72% RH)
AAT9.8°C
QNH1015 hPa
Density Alt1,480 ft
Elevation1,529 ft
Report Wrong Elevation
Raw Report
GMMX 110330Z VRB01KT CAVOK 11/06 Q1015 NOSIG=

Extra information for GMMX:More info

Metar Taf Metar & Taf Last 4 Metars F.Rules Stats Wind Profile Meteogram Temp Stats Airport Information Weather charts Add Link Nearby VenuesMetar ALERT Operation Metar Decoded Social comments